sensor_id;sensor_type;location;lat;lon;timestamp;temperature;humidity
33149;DHT22;19506;51.040;3.856;2022-10-30T00:00:04;19.20;99.90
33149;DHT22;19506;51.040;3.856;2022-10-30T00:02:30;19.10;99.90
33149;DHT22;19506;51.040;3.856;2022-10-30T00:04:55;19.10;99.90
33149;DHT22;19506;51.040;3.856;2022-10-30T00:07:21;19.10;99.90
33149;DHT22;19506;51.040;3.856;2022-10-30T00:09:47;19.10;99.90
33149;DHT22;19506;51.040;3.856;2022-10-30T00:12:12;19.00;99.90
33149;DHT22;19506;51.040;3.856;2022-10-30T00:14:38;19.10;99.90
33149;DHT22;19506;51.040;3.856;2022-10-30T00:17:04;19.00;99.90
33149;DHT22;19506;51.040;3.856;2022-10-30T00:19:29;19.00;99.90
33149;DHT22;19506;51.040;3.856;2022-10-30T00:21:55;19.00;99.90
33149;DHT22;19506;51.040;3.856;2022-10-30T00:24:22;19.00;99.90
33149;DHT22;19506;51.040;3.856;2022-10-30T00:26:48;19.00;99.90
33149;DHT22;19506;51.040;3.856;2022-10-30T00:29:14;19.00;99.90
33149;DHT22;19506;51.040;3.856;2022-10-30T00:31:40;18.90;99.90
33149;DHT22;19506;51.040;3.856;2022-10-30T00:34:06;18.90;99.90
33149;DHT22;19506;51.040;3.856;2022-10-30T00:36:31;18.90;99.90
33149;DHT22;19506;51.040;3.856;2022-10-30T00:38:57;18.90;99.90
33149;DHT22;19506;51.040;3.856;2022-10-30T00:41:23;18.90;99.90
33149;DHT22;19506;51.040;3.856;2022-10-30T00:43:49;18.80;99.90
33149;DHT22;19506;51.040;3.856;2022-10-30T00:46:43;18.80;99.90
33149;DHT22;19506;51.040;3.856;2022-10-30T00:49:12;18.80;99.90
33149;DHT22;19506;51.040;3.856;2022-10-30T00:51:42;18.80;99.90
33149;DHT22;19506;51.040;3.856;2022-10-30T00:54:11;18.70;99.90
33149;DHT22;19506;51.040;3.856;2022-10-30T00:56:38;18.70;99.90
33149;DHT22;19506;51.040;3.856;2022-10-30T00:59:08;18.70;99.90
33149;DHT22;19506;51.040;3.856;2022-10-30T01:01:37;18.70;99.90
33149;DHT22;19506;51.040;3.856;2022-10-30T01:04:05;18.70;99.90
33149;DHT22;19506;51.040;3.856;2022-10-30T01:06:36;18.70;99.90
33149;DHT22;19506;51.040;3.856;2022-10-30T01:09:03;18.70;99.90
33149;DHT22;19506;51.040;3.856;2022-10-30T01:11:29;18.70;99.90
33149;DHT22;19506;51.040;3.856;2022-10-30T01:13:57;18.70;99.90
33149;DHT22;19506;51.040;3.856;2022-10-30T01:36:39;18.50;99.90
33149;DHT22;19506;51.040;3.856;2022-10-30T01:39:26;18.50;99.90
33149;DHT22;19506;51.040;3.856;2022-10-30T01:41:53;18.50;99.90
33149;DHT22;19506;51.040;3.856;2022-10-30T01:44:30;18.50;99.90
33149;DHT22;19506;51.040;3.856;2022-10-30T01:47:17;18.50;99.90
33149;DHT22;19506;51.040;3.856;2022-10-30T01:52:56;18.40;99.90
33149;DHT22;19506;51.040;3.856;2022-10-30T01:58:21;18.30;99.90
33149;DHT22;19506;51.040;3.856;2022-10-30T02:00:55;18.30;99.90
33149;DHT22;19506;51.040;3.856;2022-10-30T02:03:21;18.30;99.90
33149;DHT22;19506;51.040;3.856;2022-10-30T02:05:49;18.30;99.90
33149;DHT22;19506;51.040;3.856;2022-10-30T02:08:16;18.30;99.90
33149;DHT22;19506;51.040;3.856;2022-10-30T02:10:44;18.30;99.90
33149;DHT22;19506;51.040;3.856;2022-10-30T02:13:10;18.30;99.90
33149;DHT22;19506;51.040;3.856;2022-10-30T02:15:36;18.20;99.90
33149;DHT22;19506;51.040;3.856;2022-10-30T02:18:02;18.20;99.90
33149;DHT22;19506;51.040;3.856;2022-10-30T02:20:29;18.20;99.90
33149;DHT22;19506;51.040;3.856;2022-10-30T02:22:55;18.20;99.90
33149;DHT22;19506;51.040;3.856;2022-10-30T02:25:20;18.20;99.90
33149;DHT22;19506;51.040;3.856;2022-10-30T02:27:46;18.10;99.90
33149;DHT22;19506;51.040;3.856;2022-10-30T02:30:12;18.10;99.90
33149;DHT22;19506;51.040;3.856;2022-10-30T02:32:38;18.10;99.90
33149;DHT22;19506;51.040;3.856;2022-10-30T02:35:05;18.10;99.90
33149;DHT22;19506;51.040;3.856;2022-10-30T02:37:31;18.10;99.90
33149;DHT22;19506;51.040;3.856;2022-10-30T02:39:57;18.10;99.90
33149;DHT22;19506;51.040;3.856;2022-10-30T02:42:23;18.00;99.90
33149;DHT22;19506;51.040;3.856;2022-10-30T02:44:49;18.10;99.90
33149;DHT22;19506;51.040;3.856;2022-10-30T02:47:14;18.10;99.90
33149;DHT22;19506;51.040;3.856;2022-10-30T02:49:40;18.00;99.90
33149;DHT22;19506;51.040;3.856;2022-10-30T02:52:06;17.90;99.90
33149;DHT22;19506;51.040;3.856;2022-10-30T02:54:33;17.80;99.90
33149;DHT22;19506;51.040;3.856;2022-10-30T02:56:59;17.80;99.90
33149;DHT22;19506;51.040;3.856;2022-10-30T02:59:24;17.80;99.90
33149;DHT22;19506;51.040;3.856;2022-10-30T03:01:50;17.70;99.90
33149;DHT22;19506;51.040;3.856;2022-10-30T03:04:15;17.70;99.90
33149;DHT22;19506;51.040;3.856;2022-10-30T03:06:41;17.70;99.90
33149;DHT22;19506;51.040;3.856;2022-10-30T03:09:07;17.70;99.90
33149;DHT22;19506;51.040;3.856;2022-10-30T03:11:33;17.70;99.90
33149;DHT22;19506;51.040;3.856;2022-10-30T03:13:59;17.60;99.90
33149;DHT22;19506;51.040;3.856;2022-10-30T03:16:26;17.60;99.90
33149;DHT22;19506;51.040;3.856;2022-10-30T03:18:55;17.60;99.90
33149;DHT22;19506;51.040;3.856;2022-10-30T03:21:24;17.60;99.90
33149;DHT22;19506;51.040;3.856;2022-10-30T03:23:50;17.50;99.90
33149;DHT22;19506;51.040;3.856;2022-10-30T03:26:16;17.50;99.90
33149;DHT22;19506;51.040;3.856;2022-10-30T03:28:42;17.50;99.90
33149;DHT22;19506;51.040;3.856;2022-10-30T03:31:10;17.50;99.90
33149;DHT22;19506;51.040;3.856;2022-10-30T03:33:37;17.50;99.90
33149;DHT22;19506;51.040;3.856;2022-10-30T03:36:04;17.50;99.90
33149;DHT22;19506;51.040;3.856;2022-10-30T03:38:30;17.50;99.90
33149;DHT22;19506;51.040;3.856;2022-10-30T03:40:56;17.50;99.90
33149;DHT22;19506;51.040;3.856;2022-10-30T03:43:22;17.50;99.90
33149;DHT22;19506;51.040;3.856;2022-10-30T03:45:49;17.50;99.90
33149;DHT22;19506;51.040;3.856;2022-10-30T03:48:17;17.60;99.90
33149;DHT22;19506;51.040;3.856;2022-10-30T03:50:43;17.50;99.90
33149;DHT22;19506;51.040;3.856;2022-10-30T03:53:08;17.50;99.90
33149;DHT22;19506;51.040;3.856;2022-10-30T03:55:34;17.50;99.90
33149;DHT22;19506;51.040;3.856;2022-10-30T03:58:00;17.50;99.90
33149;DHT22;19506;51.040;3.856;2022-10-30T04:00:25;17.50;99.90
33149;DHT22;19506;51.040;3.856;2022-10-30T04:02:51;17.50;99.90
33149;DHT22;19506;51.040;3.856;2022-10-30T04:05:20;17.50;99.90
33149;DHT22;19506;51.040;3.856;2022-10-30T04:07:47;17.50;99.90
33149;DHT22;19506;51.040;3.856;2022-10-30T04:10:13;17.40;99.90
33149;DHT22;19506;51.040;3.856;2022-10-30T04:12:39;17.50;99.90
33149;DHT22;19506;51.040;3.856;2022-10-30T04:15:06;17.40;99.90
33149;DHT22;19506;51.040;3.856;2022-10-30T04:17:33;17.40;99.90
33149;DHT22;19506;51.040;3.856;2022-10-30T04:19:59;17.40;99.90
33149;DHT22;19506;51.040;3.856;2022-10-30T04:22:24;17.40;99.90
33149;DHT22;19506;51.040;3.856;2022-10-30T04:24:50;17.40;99.90
33149;DHT22;19506;51.040;3.856;2022-10-30T04:27:18;17.40;99.90
33149;DHT22;19506;51.040;3.856;2022-10-30T04:29:45;17.40;99.90
33149;DHT22;19506;51.040;3.856;2022-10-30T04:32:11;17.30;99.90
33149;DHT22;19506;51.040;3.856;2022-10-30T04:34:37;17.30;99.90
33149;DHT22;19506;51.040;3.856;2022-10-30T04:37:04;17.30;99.90
33149;DHT22;19506;51.040;3.856;2022-10-30T04:39:31;17.40;99.90
33149;DHT22;19506;51.040;3.856;2022-10-30T04:41:56;17.40;99.90
33149;DHT22;19506;51.040;3.856;2022-10-30T04:44:22;17.40;99.90
33149;DHT22;19506;51.040;3.856;2022-10-30T04:46:47;17.30;99.90
33149;DHT22;19506;51.040;3.856;2022-10-30T04:49:13;17.30;99.90
33149;DHT22;19506;51.040;3.856;2022-10-30T04:51:39;17.30;99.90
33149;DHT22;19506;51.040;3.856;2022-10-30T04:54:04;17.30;99.90
33149;DHT22;19506;51.040;3.856;2022-10-30T04:56:30;17.30;99.90
33149;DHT22;19506;51.040;3.856;2022-10-30T04:58:57;17.30;99.90
33149;DHT22;19506;51.040;3.856;2022-10-30T05:01:23;17.30;99.90
33149;DHT22;19506;51.040;3.856;2022-10-30T05:03:49;17.30;99.90
33149;DHT22;19506;51.040;3.856;2022-10-30T05:06:22;17.30;99.90
33149;DHT22;19506;51.040;3.856;2022-10-30T05:08:49;17.30;99.90
33149;DHT22;19506;51.040;3.856;2022-10-30T05:11:15;17.30;99.90
33149;DHT22;19506;51.040;3.856;2022-10-30T05:13:41;17.20;99.90
33149;DHT22;19506;51.040;3.856;2022-10-30T05:16:06;17.20;99.90
33149;DHT22;19506;51.040;3.856;2022-10-30T05:18:32;17.20;99.90
33149;DHT22;19506;51.040;3.856;2022-10-30T05:20:58;17.20;99.90
33149;DHT22;19506;51.040;3.856;2022-10-30T05:23:23;17.20;99.90
33149;DHT22;19506;51.040;3.856;2022-10-30T05:25:49;17.20;99.90
33149;DHT22;19506;51.040;3.856;2022-10-30T05:28:15;17.10;99.90
33149;DHT22;19506;51.040;3.856;2022-10-30T05:30:40;17.10;99.90
33149;DHT22;19506;51.040;3.856;2022-10-30T05:33:09;17.10;99.90
33149;DHT22;19506;51.040;3.856;2022-10-30T05:35:36;17.10;99.90
33149;DHT22;19506;51.040;3.856;2022-10-30T05:38:03;17.10;99.90
33149;DHT22;19506;51.040;3.856;2022-10-30T05:40:30;17.10;99.90
33149;DHT22;19506;51.040;3.856;2022-10-30T05:42:56;17.10;99.90
33149;DHT22;19506;51.040;3.856;2022-10-30T05:45:21;17.10;99.90
33149;DHT22;19506;51.040;3.856;2022-10-30T05:47:54;17.10;99.90
33149;DHT22;19506;51.040;3.856;2022-10-30T05:50:20;17.20;99.90
33149;DHT22;19506;51.040;3.856;2022-10-30T05:52:46;17.10;99.90
33149;DHT22;19506;51.040;3.856;2022-10-30T05:55:11;17.10;99.90
33149;DHT22;19506;51.040;3.856;2022-10-30T05:57:37;17.10;99.90
33149;DHT22;19506;51.040;3.856;2022-10-30T06:00:04;17.10;99.90
33149;DHT22;19506;51.040;3.856;2022-10-30T06:02:30;17.10;99.90
33149;DHT22;19506;51.040;3.856;2022-10-30T06:04:55;17.10;99.90
33149;DHT22;19506;51.040;3.856;2022-10-30T06:07:21;17.10;99.90
33149;DHT22;19506;51.040;3.856;2022-10-30T06:09:46;17.10;99.90
33149;DHT22;19506;51.040;3.856;2022-10-30T06:12:12;17.10;99.90
33149;DHT22;19506;51.040;3.856;2022-10-30T06:14:38;17.10;99.90
33149;DHT22;19506;51.040;3.856;2022-10-30T06:17:03;17.10;99.90
33149;DHT22;19506;51.040;3.856;2022-10-30T06:19:29;17.10;99.90
33149;DHT22;19506;51.040;3.856;2022-10-30T06:21:54;17.10;99.90
33149;DHT22;19506;51.040;3.856;2022-10-30T06:24:20;17.10;99.90
33149;DHT22;19506;51.040;3.856;2022-10-30T06:26:45;17.10;99.90
33149;DHT22;19506;51.040;3.856;2022-10-30T06:29:11;17.10;99.90
33149;DHT22;19506;51.040;3.856;2022-10-30T06:31:37;17.10;99.90
33149;DHT22;19506;51.040;3.856;2022-10-30T06:34:02;17.10;99.90
33149;DHT22;19506;51.040;3.856;2022-10-30T06:36:29;17.00;99.90
33149;DHT22;19506;51.040;3.856;2022-10-30T06:38:55;17.20;99.90
33149;DHT22;19506;51.040;3.856;2022-10-30T06:41:21;17.50;99.90
33149;DHT22;19506;51.040;3.856;2022-10-30T06:43:46;17.60;99.90
33149;DHT22;19506;51.040;3.856;2022-10-30T06:46:12;17.60;99.90
33149;DHT22;19506;51.040;3.856;2022-10-30T06:48:37;17.60;99.90
33149;DHT22;19506;51.040;3.856;2022-10-30T06:51:03;17.60;99.90
33149;DHT22;19506;51.040;3.856;2022-10-30T06:53:29;17.60;99.90
33149;DHT22;19506;51.040;3.856;2022-10-30T06:55:59;17.60;99.90
33149;DHT22;19506;51.040;3.856;2022-10-30T06:58:26;17.50;99.90
33149;DHT22;19506;51.040;3.856;2022-10-30T07:00:52;17.40;99.90
33149;DHT22;19506;51.040;3.856;2022-10-30T07:03:18;17.40;99.90
33149;DHT22;19506;51.040;3.856;2022-10-30T07:05:43;17.40;99.90
33149;DHT22;19506;51.040;3.856;2022-10-30T07:08:09;17.40;99.90
33149;DHT22;19506;51.040;3.856;2022-10-30T07:10:35;17.40;99.90
33149;DHT22;19506;51.040;3.856;2022-10-30T07:13:01;17.40;99.90
33149;DHT22;19506;51.040;3.856;2022-10-30T07:15:27;17.40;99.90
33149;DHT22;19506;51.040;3.856;2022-10-30T07:20:18;17.30;99.90
33149;DHT22;19506;51.040;3.856;2022-10-30T07:22:44;17.30;99.90
33149;DHT22;19506;51.040;3.856;2022-10-30T07:25:10;17.20;99.90
33149;DHT22;19506;51.040;3.856;2022-10-30T07:27:46;17.30;99.90
33149;DHT22;19506;51.040;3.856;2022-10-30T07:30:13;17.20;99.90
33149;DHT22;19506;51.040;3.856;2022-10-30T07:32:39;17.20;99.90
33149;DHT22;19506;51.040;3.856;2022-10-30T07:35:05;17.20;99.90
33149;DHT22;19506;51.040;3.856;2022-10-30T07:37:31;17.20;99.90
33149;DHT22;19506;51.040;3.856;2022-10-30T07:39:57;17.20;99.90
33149;DHT22;19506;51.040;3.856;2022-10-30T07:42:23;17.20;99.90
33149;DHT22;19506;51.040;3.856;2022-10-30T07:44:48;17.20;99.90
33149;DHT22;19506;51.040;3.856;2022-10-30T07:47:14;17.20;99.90
33149;DHT22;19506;51.040;3.856;2022-10-30T07:49:39;17.20;99.90
33149;DHT22;19506;51.040;3.856;2022-10-30T07:52:05;17.20;99.90
33149;DHT22;19506;51.040;3.856;2022-10-30T07:54:31;17.20;99.90
33149;DHT22;19506;51.040;3.856;2022-10-30T07:56:56;17.20;99.90
33149;DHT22;19506;51.040;3.856;2022-10-30T07:59:24;17.20;99.90
33149;DHT22;19506;51.040;3.856;2022-10-30T08:01:49;17.20;99.90
33149;DHT22;19506;51.040;3.856;2022-10-30T08:04:15;17.20;99.90
33149;DHT22;19506;51.040;3.856;2022-10-30T08:06:42;17.30;99.90
33149;DHT22;19506;51.040;3.856;2022-10-30T08:09:08;17.30;99.90
33149;DHT22;19506;51.040;3.856;2022-10-30T08:11:33;17.30;99.90
33149;DHT22;19506;51.040;3.856;2022-10-30T08:13:59;17.40;99.90
33149;DHT22;19506;51.040;3.856;2022-10-30T08:16:25;17.40;99.90
33149;DHT22;19506;51.040;3.856;2022-10-30T08:18:51;17.40;99.90
33149;DHT22;19506;51.040;3.856;2022-10-30T08:21:16;17.40;99.90
33149;DHT22;19506;51.040;3.856;2022-10-30T08:23:42;17.50;99.90
33149;DHT22;19506;51.040;3.856;2022-10-30T08:26:08;17.50;99.90
33149;DHT22;19506;51.040;3.856;2022-10-30T08:28:33;17.60;99.90
33149;DHT22;19506;51.040;3.856;2022-10-30T08:31:00;17.60;99.90
33149;DHT22;19506;51.040;3.856;2022-10-30T08:33:27;17.70;99.90
33149;DHT22;19506;51.040;3.856;2022-10-30T08:35:55;17.80;99.90
33149;DHT22;19506;51.040;3.856;2022-10-30T08:38:21;17.90;99.90
33149;DHT22;19506;51.040;3.856;2022-10-30T08:40:47;18.20;99.90
33149;DHT22;19506;51.040;3.856;2022-10-30T08:43:13;18.40;99.90
33149;DHT22;19506;51.040;3.856;2022-10-30T08:45:40;18.40;99.90
33149;DHT22;19506;51.040;3.856;2022-10-30T08:48:08;18.40;99.90
33149;DHT22;19506;51.040;3.856;2022-10-30T08:50:34;18.40;99.90
33149;DHT22;19506;51.040;3.856;2022-10-30T08:53:01;18.50;99.90
33149;DHT22;19506;51.040;3.856;2022-10-30T08:55:27;18.70;99.90
33149;DHT22;19506;51.040;3.856;2022-10-30T08:57:53;18.70;99.90
33149;DHT22;19506;51.040;3.856;2022-10-30T09:00:19;18.90;99.90
33149;DHT22;19506;51.040;3.856;2022-10-30T09:02:44;18.90;99.90
33149;DHT22;19506;51.040;3.856;2022-10-30T09:05:10;18.90;99.90
33149;DHT22;19506;51.040;3.856;2022-10-30T09:07:36;19.00;99.90
33149;DHT22;19506;51.040;3.856;2022-10-30T09:10:02;19.10;99.90
33149;DHT22;19506;51.040;3.856;2022-10-30T09:12:28;19.10;99.90
33149;DHT22;19506;51.040;3.856;2022-10-30T09:14:53;19.20;99.90
33149;DHT22;19506;51.040;3.856;2022-10-30T09:17:19;19.30;99.90
33149;DHT22;19506;51.040;3.856;2022-10-30T09:19:45;19.40;99.90
33149;DHT22;19506;51.040;3.856;2022-10-30T09:22:10;19.50;99.90
33149;DHT22;19506;51.040;3.856;2022-10-30T09:24:36;19.40;99.90
33149;DHT22;19506;51.040;3.856;2022-10-30T09:27:03;19.50;99.90
33149;DHT22;19506;51.040;3.856;2022-10-30T09:29:28;19.60;99.90
33149;DHT22;19506;51.040;3.856;2022-10-30T09:31:56;19.80;99.90
33149;DHT22;19506;51.040;3.856;2022-10-30T09:34:22;19.90;99.90
33149;DHT22;19506;51.040;3.856;2022-10-30T09:36:47;20.00;99.90
33149;DHT22;19506;51.040;3.856;2022-10-30T09:39:14;19.90;99.90
33149;DHT22;19506;51.040;3.856;2022-10-30T10:06:19;20.00;99.90
33149;DHT22;19506;51.040;3.856;2022-10-30T10:09:36;20.10;99.90
33149;DHT22;19506;51.040;3.856;2022-10-30T10:11:41;20.10;99.90
33149;DHT22;19506;51.040;3.856;2022-10-30T10:14:16;20.20;99.90
33149;DHT22;19506;51.040;3.856;2022-10-30T10:16:49;20.20;99.90
33149;DHT22;19506;51.040;3.856;2022-10-30T10:19:29;20.10;99.90
33149;DHT22;19506;51.040;3.856;2022-10-30T10:22:01;19.90;99.90
33149;DHT22;19506;51.040;3.856;2022-10-30T10:24:30;19.90;99.90
33149;DHT22;19506;51.040;3.856;2022-10-30T10:29:45;20.00;99.90
33149;DHT22;19506;51.040;3.856;2022-10-30T10:33:00;19.90;99.90
33149;DHT22;19506;51.040;3.856;2022-10-30T10:36:02;19.80;99.90
33149;DHT22;19506;51.040;3.856;2022-10-30T10:41:26;19.90;99.90
33149;DHT22;19506;51.040;3.856;2022-10-30T10:46:54;20.20;99.90
33149;DHT22;19506;51.040;3.856;2022-10-30T10:52:35;20.20;99.90
33149;DHT22;19506;51.040;3.856;2022-10-30T10:55:12;20.00;99.90
33149;DHT22;19506;51.040;3.856;2022-10-30T10:57:41;19.90;99.90
33149;DHT22;19506;51.040;3.856;2022-10-30T11:03:11;20.40;99.90
33149;DHT22;19506;51.040;3.856;2022-10-30T11:08:31;20.40;99.90
33149;DHT22;19506;51.040;3.856;2022-10-30T11:11:00;20.20;99.90
33149;DHT22;19506;51.040;3.856;2022-10-30T11:13:29;20.20;99.90
33149;DHT22;19506;51.040;3.856;2022-10-30T11:19:01;20.40;99.90
33149;DHT22;19506;51.040;3.856;2022-10-30T11:21:30;20.40;99.90
33149;DHT22;19506;51.040;3.856;2022-10-30T11:23:58;20.40;99.90
33149;DHT22;19506;51.040;3.856;2022-10-30T11:26:30;20.50;99.90
33149;DHT22;19506;51.040;3.856;2022-10-30T11:29:13;20.60;99.90
33149;DHT22;19506;51.040;3.856;2022-10-30T11:31:41;20.60;99.90
33149;DHT22;19506;51.040;3.856;2022-10-30T11:36:42;20.70;99.90
33149;DHT22;19506;51.040;3.856;2022-10-30T11:39:22;20.80;99.90
33149;DHT22;19506;51.040;3.856;2022-10-30T11:44:28;20.70;99.90
33149;DHT22;19506;51.040;3.856;2022-10-30T11:46:55;20.80;99.90
33149;DHT22;19506;51.040;3.856;2022-10-30T11:49:46;20.60;99.90
33149;DHT22;19506;51.040;3.856;2022-10-30T11:52:15;20.70;99.90
33149;DHT22;19506;51.040;3.856;2022-10-30T11:54:48;20.70;99.90
33149;DHT22;19506;51.040;3.856;2022-10-30T11:57:33;20.80;99.90
33149;DHT22;19506;51.040;3.856;2022-10-30T12:00:02;20.80;99.90
33149;DHT22;19506;51.040;3.856;2022-10-30T12:02:29;20.90;99.90
33149;DHT22;19506;51.040;3.856;2022-10-30T12:08:14;21.20;99.90
33149;DHT22;19506;51.040;3.856;2022-10-30T12:13:16;21.20;99.90
33149;DHT22;19506;51.040;3.856;2022-10-30T12:15:45;21.40;99.90
33149;DHT22;19506;51.040;3.856;2022-10-30T12:18:23;21.50;99.90
33149;DHT22;19506;51.040;3.856;2022-10-30T12:20:52;21.70;99.90
33149;DHT22;19506;51.040;3.856;2022-10-30T12:23:21;21.80;99.90
33149;DHT22;19506;51.040;3.856;2022-10-30T12:25:51;21.90;99.90
33149;DHT22;19506;51.040;3.856;2022-10-30T12:28:28;21.70;99.90
33149;DHT22;19506;51.040;3.856;2022-10-30T12:33:56;21.90;99.90
33149;DHT22;19506;51.040;3.856;2022-10-30T12:36:33;21.90;99.90
33149;DHT22;19506;51.040;3.856;2022-10-30T12:39:17;22.30;99.90
33149;DHT22;19506;51.040;3.856;2022-10-30T12:41:58;22.40;99.90
33149;DHT22;19506;51.040;3.856;2022-10-30T12:44:40;22.40;99.90
33149;DHT22;19506;51.040;3.856;2022-10-30T12:47:19;22.70;99.90
33149;DHT22;19506;51.040;3.856;2022-10-30T12:50:14;22.70;99.90
33149;DHT22;19506;51.040;3.856;2022-10-30T12:52:59;23.10;99.90
33149;DHT22;19506;51.040;3.856;2022-10-30T12:55:49;23.40;99.90
33149;DHT22;19506;51.040;3.856;2022-10-30T12:58:37;23.40;99.90
33149;DHT22;19506;51.040;3.856;2022-10-30T13:01:22;23.60;99.90
33149;DHT22;19506;51.040;3.856;2022-10-30T13:04:09;23.70;99.90
33149;DHT22;19506;51.040;3.856;2022-10-30T13:09:38;23.10;99.90
33149;DHT22;19506;51.040;3.856;2022-10-30T13:12:13;22.80;99.90
33149;DHT22;19506;51.040;3.856;2022-10-30T13:14:45;22.60;99.90
33149;DHT22;19506;51.040;3.856;2022-10-30T13:17:12;22.50;99.90
33149;DHT22;19506;51.040;3.856;2022-10-30T13:19:43;22.30;99.90
33149;DHT22;19506;51.040;3.856;2022-10-30T13:25:05;22.00;99.90
33149;DHT22;19506;51.040;3.856;2022-10-30T13:27:37;22.00;99.90
33149;DHT22;19506;51.040;3.856;2022-10-30T13:30:18;21.90;99.90
33149;DHT22;19506;51.040;3.856;2022-10-30T13:43:55;21.90;99.90
33149;DHT22;19506;51.040;3.856;2022-10-30T13:51:58;21.80;99.90
33149;DHT22;19506;51.040;3.856;2022-10-30T13:54:50;21.80;99.90
33149;DHT22;19506;51.040;3.856;2022-10-30T13:57:39;21.80;99.90
33149;DHT22;19506;51.040;3.856;2022-10-30T14:03:11;21.50;99.90
33149;DHT22;19506;51.040;3.856;2022-10-30T14:05:47;21.40;99.90
33149;DHT22;19506;51.040;3.856;2022-10-30T14:08:27;21.20;99.90
33149;DHT22;19506;51.040;3.856;2022-10-30T14:10:57;21.20;99.90
33149;DHT22;19506;51.040;3.856;2022-10-30T14:13:53;21.20;99.90
33149;DHT22;19506;51.040;3.856;2022-10-30T14:16:43;21.30;99.90
33149;DHT22;19506;51.040;3.856;2022-10-30T14:19:11;21.20;99.90
33149;DHT22;19506;51.040;3.856;2022-10-30T14:21:38;21.10;99.90
33149;DHT22;19506;51.040;3.856;2022-10-30T14:24:18;21.10;99.90
33149;DHT22;19506;51.040;3.856;2022-10-30T14:26:53;21.10;99.90
33149;DHT22;19506;51.040;3.856;2022-10-30T14:31:58;21.20;99.90
33149;DHT22;19506;51.040;3.856;2022-10-30T14:37:14;21.20;99.90
33149;DHT22;19506;51.040;3.856;2022-10-30T14:39:43;21.20;99.90
33149;DHT22;19506;51.040;3.856;2022-10-30T14:42:42;21.20;99.90
33149;DHT22;19506;51.040;3.856;2022-10-30T14:45:16;21.30;99.90
33149;DHT22;19506;51.040;3.856;2022-10-30T14:50:39;21.40;99.90
33149;DHT22;19506;51.040;3.856;2022-10-30T14:58:39;21.60;99.90
33149;DHT22;19506;51.040;3.856;2022-10-30T15:01:23;21.50;99.90
33149;DHT22;19506;51.040;3.856;2022-10-30T15:09:37;21.50;99.90
33149;DHT22;19506;51.040;3.856;2022-10-30T15:14:45;21.50;99.90
33149;DHT22;19506;51.040;3.856;2022-10-30T15:17:21;21.60;99.90
33149;DHT22;19506;51.040;3.856;2022-10-30T15:19:47;21.50;99.90
33149;DHT22;19506;51.040;3.856;2022-10-30T15:22:18;21.70;99.90
33149;DHT22;19506;51.040;3.856;2022-10-30T15:24:44;21.50;99.90
33149;DHT22;19506;51.040;3.856;2022-10-30T15:27:18;21.50;99.90
33149;DHT22;19506;51.040;3.856;2022-10-30T15:29:53;21.50;99.90
33149;DHT22;19506;51.040;3.856;2022-10-30T15:32:21;21.60;99.90
33149;DHT22;19506;51.040;3.856;2022-10-30T15:35:01;21.60;99.90
33149;DHT22;19506;51.040;3.856;2022-10-30T15:37:28;21.60;99.90
33149;DHT22;19506;51.040;3.856;2022-10-30T15:42:41;21.60;99.90
33149;DHT22;19506;51.040;3.856;2022-10-30T15:45:24;21.60;99.90
33149;DHT22;19506;51.040;3.856;2022-10-30T15:50:24;21.40;99.90
33149;DHT22;19506;51.040;3.856;2022-10-30T16:00:26;21.40;99.90
33149;DHT22;19506;51.040;3.856;2022-10-30T16:03:00;21.40;99.90
33149;DHT22;19506;51.040;3.856;2022-10-30T16:05:26;21.30;99.90
33149;DHT22;19506;51.040;3.856;2022-10-30T16:08:00;21.40;99.90
33149;DHT22;19506;51.040;3.856;2022-10-30T16:10:33;21.40;99.90
33149;DHT22;19506;51.040;3.856;2022-10-30T16:13:00;21.40;99.90
33149;DHT22;19506;51.040;3.856;2022-10-30T16:15:29;21.40;99.90
33149;DHT22;19506;51.040;3.856;2022-10-30T16:18:24;21.50;99.90
33149;DHT22;19506;51.040;3.856;2022-10-30T16:20:56;21.40;99.90
33149;DHT22;19506;51.040;3.856;2022-10-30T16:23:22;21.50;99.90
33149;DHT22;19506;51.040;3.856;2022-10-30T16:25:57;21.50;99.90
33149;DHT22;19506;51.040;3.856;2022-10-30T16:28:29;21.40;99.90
33149;DHT22;19506;51.040;3.856;2022-10-30T16:31:00;21.40;99.90
33149;DHT22;19506;51.040;3.856;2022-10-30T16:33:28;21.40;99.90
33149;DHT22;19506;51.040;3.856;2022-10-30T16:35:55;21.50;99.90
33149;DHT22;19506;51.040;3.856;2022-10-30T16:38:22;21.40;99.90
33149;DHT22;19506;51.040;3.856;2022-10-30T16:40:49;21.50;99.90
33149;DHT22;19506;51.040;3.856;2022-10-30T16:43:27;21.40;99.90
33149;DHT22;19506;51.040;3.856;2022-10-30T16:45:55;21.40;99.90
33149;DHT22;19506;51.040;3.856;2022-10-30T16:48:27;21.40;99.90
33149;DHT22;19506;51.040;3.856;2022-10-30T16:50:59;21.40;99.90
33149;DHT22;19506;51.040;3.856;2022-10-30T16:53:26;21.40;99.90
33149;DHT22;19506;51.040;3.856;2022-10-30T16:55:54;21.40;99.90
33149;DHT22;19506;51.040;3.856;2022-10-30T16:58:24;21.40;99.90
33149;DHT22;19506;51.040;3.856;2022-10-30T17:00:53;21.40;99.90
33149;DHT22;19506;51.040;3.856;2022-10-30T17:03:22;21.40;99.90
33149;DHT22;19506;51.040;3.856;2022-10-30T17:06:04;21.40;99.90
33149;DHT22;19506;51.040;3.856;2022-10-30T17:08:40;21.50;99.90
33149;DHT22;19506;51.040;3.856;2022-10-30T17:11:14;21.40;99.90
33149;DHT22;19506;51.040;3.856;2022-10-30T17:14:02;21.40;99.90
33149;DHT22;19506;51.040;3.856;2022-10-30T17:16:31;21.40;99.90
33149;DHT22;19506;51.040;3.856;2022-10-30T17:21:55;21.40;99.90
33149;DHT22;19506;51.040;3.856;2022-10-30T17:24:33;21.40;99.90
33149;DHT22;19506;51.040;3.856;2022-10-30T17:27:01;21.40;99.90
33149;DHT22;19506;51.040;3.856;2022-10-30T17:32:23;21.40;99.90
33149;DHT22;19506;51.040;3.856;2022-10-30T17:34:58;21.40;99.90
33149;DHT22;19506;51.040;3.856;2022-10-30T17:37:25;21.40;99.90
33149;DHT22;19506;51.040;3.856;2022-10-30T17:39:50;21.40;99.90
33149;DHT22;19506;51.040;3.856;2022-10-30T17:42:16;21.40;99.90
33149;DHT22;19506;51.040;3.856;2022-10-30T17:44:42;21.40;99.90
33149;DHT22;19506;51.040;3.856;2022-10-30T17:47:18;21.40;99.90
33149;DHT22;19506;51.040;3.856;2022-10-30T17:49:45;21.40;99.90
33149;DHT22;19506;51.040;3.856;2022-10-30T17:52:16;21.40;99.90
33149;DHT22;19506;51.040;3.856;2022-10-30T17:54:42;21.40;99.90
33149;DHT22;19506;51.040;3.856;2022-10-30T17:57:09;21.40;99.90
33149;DHT22;19506;51.040;3.856;2022-10-30T17:59:36;21.40;99.90
33149;DHT22;19506;51.040;3.856;2022-10-30T18:02:07;21.40;99.90
33149;DHT22;19506;51.040;3.856;2022-10-30T18:04:34;21.40;99.90
33149;DHT22;19506;51.040;3.856;2022-10-30T18:06:59;21.40;99.90
33149;DHT22;19506;51.040;3.856;2022-10-30T18:09:25;21.40;99.90
33149;DHT22;19506;51.040;3.856;2022-10-30T18:11:51;21.40;99.90
33149;DHT22;19506;51.040;3.856;2022-10-30T18:14:16;21.30;99.90
33149;DHT22;19506;51.040;3.856;2022-10-30T18:16:42;21.40;99.90